createdAt,value
2023-04-26T00:00:35.421Z,100996.47
2023-04-26T00:03:02.322Z,100992.16
2023-04-26T00:05:29.646Z,100998.00
2023-04-26T00:07:56.654Z,100990.22
2023-04-26T00:10:23.370Z,100992.69
2023-04-26T00:12:50.048Z,100984.69
2023-04-26T00:15:16.789Z,100985.09
2023-04-26T00:17:44.058Z,100988.84
2023-04-26T00:20:12.939Z,100984.56
2023-04-26T00:22:40.043Z,100991.63
2023-04-26T00:25:07.029Z,100991.13
2023-04-26T00:27:33.679Z,100987.31
2023-04-26T00:30:00.404Z,100982.94
2023-04-26T00:32:27.539Z,100983.44
2023-04-26T00:34:54.329Z,100980.97
2023-04-26T00:37:21.868Z,100983.38
2023-04-26T00:39:49.024Z,100973.38
2023-04-26T00:42:15.895Z,100981.59
2023-04-26T00:44:42.916Z,100983.47
2023-04-26T00:47:09.819Z,100979.91
2023-04-26T00:49:36.910Z,100978.13
2023-04-26T00:52:04.059Z,100974.13
2023-04-26T00:54:31.031Z,100976.25
2023-04-26T00:56:58.119Z,100972.06
2023-04-26T00:59:26.376Z,100975.22
2023-04-26T01:01:53.426Z,100970.53
2023-04-26T01:04:20.716Z,100965.13
2023-04-26T01:06:47.815Z,100964.94
2023-04-26T01:09:15.825Z,100957.53
2023-04-26T01:11:43.687Z,100950.81
2023-04-26T01:14:10.946Z,100945.63
2023-04-26T01:16:39.508Z,100941.19
2023-04-26T01:19:12.421Z,100954.16
2023-04-26T01:21:40.589Z,100955.84
2023-04-26T01:24:09.776Z,100963.25
2023-04-26T01:26:46.595Z,100961.91
2023-04-26T01:29:17.687Z,100966.22
2023-04-26T01:31:45.126Z,100956.34
2023-04-26T01:34:12.050Z,100968.53
2023-04-26T01:36:39.009Z,100957.69
2023-04-26T01:39:05.829Z,100959.84
2023-04-26T01:41:33.727Z,100956.44
2023-04-26T01:44:01.369Z,100955.59
2023-04-26T01:46:28.307Z,100960.72
2023-04-26T01:48:55.323Z,100964.91
2023-04-26T01:51:23.455Z,100955.81
2023-04-26T01:53:50.274Z,100955.56
2023-04-26T01:56:18.214Z,100957.75
2023-04-26T01:58:45.412Z,100952.50
2023-04-26T02:01:12.453Z,100953.94
2023-04-26T02:03:39.234Z,100952.81
2023-04-26T02:06:06.067Z,100943.81
2023-04-26T02:08:32.894Z,100947.97
2023-04-26T02:10:59.672Z,100937.44
2023-04-26T02:13:26.526Z,100943.34
2023-04-26T02:15:54.729Z,100935.44
2023-04-26T02:18:22.656Z,100931.84
2023-04-26T02:20:50.487Z,100930.41
2023-04-26T02:23:17.290Z,100934.66
2023-04-26T02:25:48.770Z,100929.88
2023-04-26T02:28:17.608Z,100931.84
2023-04-26T02:30:44.832Z,100923.34
2023-04-26T02:33:11.760Z,100931.72
2023-04-26T02:35:38.972Z,100937.13
2023-04-26T02:38:05.961Z,100933.47
2023-04-26T02:40:32.697Z,100937.38
2023-04-26T02:43:00.658Z,100927.13
2023-04-26T02:45:27.537Z,100936.06
2023-04-26T02:47:54.464Z,100934.97
2023-04-26T02:50:21.296Z,100936.22
2023-04-26T02:52:49.477Z,100932.72
2023-04-26T02:55:16.247Z,100927.75
2023-04-26T02:57:43.166Z,100929.28
2023-04-26T03:00:14.050Z,100926.06
2023-04-26T03:02:41.156Z,100931.84
2023-04-26T03:05:09.617Z,100924.25
2023-04-26T03:07:37.199Z,100921.63
2023-04-26T03:10:05.164Z,100916.06
2023-04-26T03:12:33.008Z,100919.16
2023-04-26T03:15:03.485Z,100922.16
2023-04-26T03:17:30.991Z,100921.38
2023-04-26T03:19:59.971Z,100918.81
2023-04-26T03:22:27.906Z,100923.16
2023-04-26T03:24:54.630Z,100929.16
2023-04-26T03:27:21.474Z,100926.75
2023-04-26T03:29:48.130Z,100924.03
2023-04-26T03:32:14.962Z,100919.78
2023-04-26T03:34:42.019Z,100914.91
2023-04-26T03:37:34.724Z,100920.25
2023-04-26T03:40:10.544Z,100910.63
2023-04-26T03:42:37.686Z,100912.47
2023-04-26T03:45:05.389Z,100916.50
2023-04-26T03:47:32.229Z,100908.03
2023-04-26T03:49:59.069Z,100905.78
2023-04-26T03:52:25.875Z,100890.47
2023-04-26T03:54:52.807Z,100903.53
2023-04-26T03:57:19.538Z,100899.28
2023-04-26T03:59:46.186Z,100895.88
2023-04-26T04:02:13.026Z,100889.69
2023-04-26T04:04:40.986Z,100885.28
2023-04-26T04:07:07.839Z,100889.47
2023-04-26T04:09:35.040Z,100888.75
2023-04-26T04:12:03.027Z,100886.78
2023-04-26T04:14:29.921Z,100879.56
2023-04-26T04:16:56.776Z,100878.47
2023-04-26T04:19:23.515Z,100873.28
2023-04-26T04:21:50.263Z,100880.56
2023-04-26T04:24:18.304Z,100885.53
2023-04-26T04:26:45.085Z,100879.47
2023-04-26T04:29:12.635Z,100887.75
2023-04-26T04:31:40.255Z,100894.97
2023-04-26T04:34:08.886Z,100886.53
2023-04-26T04:36:39.068Z,100887.44
2023-04-26T04:39:09.787Z,100886.44
2023-04-26T04:41:37.007Z,100889.00
2023-04-26T04:44:06.714Z,100881.94
2023-04-26T04:46:33.535Z,100887.84
2023-04-26T04:49:01.715Z,100885.59
2023-04-26T04:51:28.430Z,100887.84
2023-04-26T04:53:57.626Z,100886.13
2023-04-26T04:56:26.065Z,100889.88
2023-04-26T04:58:53.545Z,100891.88
2023-04-26T05:01:22.461Z,100891.69
2023-04-26T05:03:53.459Z,100892.09
2023-04-26T05:06:21.112Z,100893.91
2023-04-26T05:08:47.769Z,100893.94
2023-04-26T05:11:14.494Z,100895.56
2023-04-26T05:13:41.446Z,100898.28
2023-04-26T05:16:08.453Z,100895.34
2023-04-26T05:18:35.958Z,100891.94
2023-04-26T05:21:02.933Z,100899.72
2023-04-26T05:23:30.044Z,100900.25
2023-04-26T05:25:57.497Z,100899.50
2023-04-26T05:28:59.641Z,100887.84
2023-04-26T05:31:53.119Z,100893.16
2023-04-26T05:34:26.160Z,100895.44
2023-04-26T05:36:56.496Z,100892.72
2023-04-26T05:39:23.361Z,100892.31
2023-04-26T05:41:50.069Z,100902.09
2023-04-26T05:44:16.862Z,100897.00
2023-04-26T05:46:43.787Z,100905.47
2023-04-26T05:49:10.608Z,100904.59
2023-04-26T05:51:37.309Z,100897.28
2023-04-26T05:54:04.820Z,100903.47
2023-04-26T05:56:32.332Z,100900.75
2023-04-26T05:58:59.255Z,100905.09
2023-04-26T06:01:26.443Z,100908.13
2023-04-26T06:03:55.976Z,100907.72
2023-04-26T06:06:27.717Z,100913.72
2023-04-26T06:08:54.502Z,100913.53
2023-04-26T06:11:21.508Z,100919.03
2023-04-26T06:13:48.459Z,100915.88
2023-04-26T06:16:15.473Z,100916.75
2023-04-26T06:18:42.533Z,100916.16
2023-04-26T06:21:09.436Z,100916.53
2023-04-26T06:23:36.570Z,100915.81
2023-04-26T06:26:03.323Z,100909.63
2023-04-26T06:28:30.403Z,100919.34
2023-04-26T06:30:57.334Z,100914.84
2023-04-26T06:33:25.192Z,100914.09
2023-04-26T06:35:52.573Z,100915.09
2023-04-26T06:38:19.445Z,100920.16
2023-04-26T06:40:46.719Z,100919.59
2023-04-26T06:43:13.783Z,100914.34
2023-04-26T06:45:57.097Z,100918.28
2023-04-26T06:48:23.894Z,100916.25
2023-04-26T06:50:50.607Z,100920.22
2023-04-26T06:53:17.410Z,100920.88
2023-04-26T06:55:44.487Z,100914.50
2023-04-26T06:58:11.258Z,100921.19
2023-04-26T07:00:38.114Z,100923.66
2023-04-26T07:03:05.143Z,100922.16
2023-04-26T07:05:32.138Z,100914.22
2023-04-26T07:07:58.842Z,100915.56
2023-04-26T07:10:26.372Z,100921.19
2023-04-26T07:12:53.451Z,100918.75
2023-04-26T07:15:20.280Z,100909.97
2023-04-26T07:17:47.239Z,100905.69
2023-04-26T07:20:16.283Z,100911.50
2023-04-26T07:22:42.953Z,100910.81
2023-04-26T07:25:09.930Z,100917.44
2023-04-26T07:27:36.778Z,100903.44
2023-04-26T07:30:04.574Z,100916.44
2023-04-26T07:32:31.690Z,100905.56
2023-04-26T07:34:58.487Z,100903.03
2023-04-26T07:37:25.168Z,100913.75
2023-04-26T07:39:51.887Z,100909.09
2023-04-26T07:42:18.656Z,100910.97
2023-04-26T07:44:45.495Z,100910.25
2023-04-26T07:47:13.593Z,100907.91
2023-04-26T07:49:40.360Z,100903.41
2023-04-26T07:52:08.931Z,100907.06
2023-04-26T07:54:35.840Z,100902.69
2023-04-26T07:57:02.698Z,100903.03
2023-04-26T07:59:29.570Z,100903.50
2023-04-26T08:01:56.290Z,100895.47
2023-04-26T08:04:35.339Z,100910.31
2023-04-26T08:07:02.756Z,100902.31
2023-04-26T08:09:30.758Z,100898.03
2023-04-26T08:11:58.050Z,100897.50
2023-04-26T08:14:25.013Z,100894.91
2023-04-26T08:16:51.891Z,100903.09
2023-04-26T08:19:18.667Z,100889.31
2023-04-26T08:21:45.351Z,100895.84
2023-04-26T08:24:12.016Z,100893.69
2023-04-26T08:26:38.675Z,100896.50
2023-04-26T08:29:05.383Z,100887.75
2023-04-26T08:31:32.193Z,100895.97
2023-04-26T08:33:59.068Z,100886.03
2023-04-26T08:36:26.158Z,100890.38
2023-04-26T08:38:52.925Z,100892.25
2023-04-26T08:41:23.458Z,100896.81
2023-04-26T08:43:50.724Z,100886.91
2023-04-26T08:46:19.566Z,100888.50
2023-04-26T08:48:54.762Z,100882.78
2023-04-26T08:51:22.521Z,100881.78
2023-04-26T08:53:53.231Z,100880.94
2023-04-26T08:56:23.187Z,100882.19
2023-04-26T08:58:50.835Z,100890.81
2023-04-26T09:01:18.729Z,100888.97
2023-04-26T09:03:45.742Z,100888.88
2023-04-26T09:06:12.716Z,100895.22
2023-04-26T09:08:41.768Z,100895.97
2023-04-26T09:11:08.458Z,100894.47
2023-04-26T09:13:35.137Z,100891.13
2023-04-26T09:16:03.482Z,100879.69
2023-04-26T09:18:36.070Z,100884.19
2023-04-26T09:21:09.176Z,100886.38
2023-04-26T09:23:36.114Z,100888.16
2023-04-26T09:26:17.177Z,100882.19
2023-04-26T09:28:44.051Z,100883.47
2023-04-26T09:31:11.345Z,100877.88
2023-04-26T09:33:57.939Z,100882.09
2023-04-26T09:36:24.745Z,100884.94
2023-04-26T09:38:51.789Z,100874.00
2023-04-26T09:41:18.672Z,100878.09
2023-04-26T09:43:45.385Z,100886.06
2023-04-26T09:46:22.592Z,100876.38
2023-04-26T09:49:01.266Z,100880.13
2023-04-26T09:51:29.037Z,100873.41
2023-04-26T09:53:56.717Z,100891.09
2023-04-26T09:56:23.625Z,100881.38
2023-04-26T09:58:53.592Z,100879.09
2023-04-26T10:01:20.781Z,100866.66
2023-04-26T10:03:49.755Z,100866.56
2023-04-26T10:06:17.550Z,100861.81
2023-04-26T10:08:45.334Z,100862.19
2023-04-26T10:11:12.951Z,100873.22
2023-04-26T10:13:44.969Z,100874.53
2023-04-26T10:16:17.125Z,100875.34
2023-04-26T10:18:43.913Z,100882.91
2023-04-26T10:21:20.701Z,100867.94
2023-04-26T10:23:48.957Z,100871.69
2023-04-26T10:26:47.144Z,100877.03
2023-04-26T10:29:13.905Z,100873.28
2023-04-26T10:32:09.774Z,100874.50
2023-04-26T10:34:38.089Z,100876.91
2023-04-26T10:37:16.317Z,100868.34
2023-04-26T10:39:47.048Z,100866.84
2023-04-26T10:42:25.130Z,100868.72
2023-04-26T10:45:07.586Z,100874.13
2023-04-26T10:47:37.434Z,100869.78
2023-04-26T10:50:09.793Z,100872.41
2023-04-26T10:52:38.928Z,100869.72
2023-04-26T10:55:07.991Z,100868.03
2023-04-26T10:57:48.213Z,100862.00
2023-04-26T11:00:29.215Z,100862.94
2023-04-26T11:03:08.593Z,100863.72
2023-04-26T11:05:47.487Z,100857.56
2023-04-26T11:08:15.287Z,100860.09
2023-04-26T11:10:43.080Z,100857.25
2023-04-26T11:13:09.951Z,100859.31
2023-04-26T11:15:37.182Z,100857.25
2023-04-26T11:18:05.040Z,100854.50
2023-04-26T11:20:32.980Z,100852.22
2023-04-26T11:23:00.140Z,100861.22
2023-04-26T11:25:30.673Z,100854.19
2023-04-26T11:28:02.195Z,100863.47
2023-04-26T11:30:31.700Z,100858.03
2023-04-26T11:33:04.230Z,100867.34
2023-04-26T11:35:35.185Z,100867.47
2023-04-26T11:38:05.440Z,100863.28
2023-04-26T11:40:33.351Z,100861.50
2023-04-26T11:43:01.789Z,100866.88
2023-04-26T11:45:28.744Z,100858.53
2023-04-26T11:47:56.321Z,100862.56
2023-04-26T11:50:26.788Z,100855.06
2023-04-26T11:52:55.779Z,100857.59
2023-04-26T11:55:29.126Z,100857.38
2023-04-26T11:57:56.113Z,100863.88
2023-04-26T12:00:23.360Z,100857.78
2023-04-26T12:02:52.306Z,100857.84
2023-04-26T12:05:30.667Z,100856.94
2023-04-26T12:08:02.732Z,100857.13
2023-04-26T12:10:36.776Z,100861.03
2023-04-26T12:13:03.574Z,100856.88
2023-04-26T12:15:32.173Z,100854.97
2023-04-26T12:18:12.290Z,100856.88
2023-04-26T12:20:42.210Z,100854.44
2023-04-26T12:23:13.637Z,100855.97
2023-04-26T12:25:43.584Z,100850.09
2023-04-26T12:28:13.739Z,100849.38
2023-04-26T12:30:41.153Z,100855.13
2023-04-26T12:33:17.299Z,100854.72
2023-04-26T12:35:44.893Z,100846.22
2023-04-26T12:38:12.315Z,100846.44
2023-04-26T12:40:39.703Z,100854.00
2023-04-26T12:43:06.968Z,100853.69
2023-04-26T12:45:33.837Z,100855.72
2023-04-26T12:48:00.780Z,100849.41
2023-04-26T12:50:27.765Z,100862.22
2023-04-26T12:52:54.438Z,100862.72
2023-04-26T12:55:21.351Z,100868.41
2023-04-26T12:57:48.023Z,100875.31
2023-04-26T13:00:17.603Z,100873.41
2023-04-26T13:02:44.505Z,100871.28
2023-04-26T13:05:11.903Z,100872.84
2023-04-26T13:07:40.648Z,100881.47
2023-04-26T13:10:09.220Z,100874.69
2023-04-26T13:12:39.329Z,100873.88
2023-04-26T13:15:08.073Z,100884.44
2023-04-26T13:17:36.345Z,100884.28
2023-04-26T13:20:07.141Z,100881.41
2023-04-26T13:22:34.617Z,100882.69
2023-04-26T13:25:01.299Z,100878.88
2023-04-26T13:27:30.541Z,100882.38
2023-04-26T13:29:58.553Z,100891.47
2023-04-26T13:32:26.078Z,100891.34
2023-04-26T13:34:53.401Z,100881.03
2023-04-26T13:37:21.366Z,100881.84
2023-04-26T13:39:48.642Z,100875.97
2023-04-26T13:42:16.369Z,100880.13
2023-04-26T13:44:43.361Z,100875.66
2023-04-26T13:47:10.223Z,100878.63
2023-04-26T13:49:37.292Z,100881.34
2023-04-26T13:52:04.189Z,100892.00
2023-04-26T13:54:31.421Z,100892.56
2023-04-26T13:56:58.403Z,100894.00
2023-04-26T13:59:25.194Z,100889.47
2023-04-26T14:01:53.811Z,100892.34
2023-04-26T14:04:22.426Z,100896.13
2023-04-26T14:06:49.379Z,100893.88
2023-04-26T14:09:16.492Z,100890.63
2023-04-26T14:11:43.355Z,100898.38
2023-04-26T14:14:11.254Z,100894.34
2023-04-26T14:16:38.029Z,100887.69
2023-04-26T14:19:04.842Z,100900.47
2023-04-26T14:21:31.619Z,100892.91
2023-04-26T14:23:58.379Z,100895.97
2023-04-26T14:26:26.289Z,100894.69
2023-04-26T14:28:53.048Z,100893.50
2023-04-26T14:31:19.998Z,100894.97
2023-04-26T14:33:46.887Z,100901.22
2023-04-26T14:36:13.581Z,100889.16
2023-04-26T14:38:43.036Z,100890.03
2023-04-26T14:41:14.519Z,100883.88
2023-04-26T14:43:41.390Z,100891.59
2023-04-26T14:46:08.244Z,100892.63
2023-04-26T14:48:34.993Z,100890.31
2023-04-26T14:51:01.858Z,100893.69
2023-04-26T14:53:28.725Z,100888.78
2023-04-26T14:55:59.193Z,100890.84
2023-04-26T14:58:26.485Z,100885.91
2023-04-26T15:00:54.209Z,100892.19
2023-04-26T15:03:21.148Z,100887.13
2023-04-26T15:05:49.359Z,100891.06
2023-04-26T15:08:16.407Z,100895.53
2023-04-26T15:10:43.403Z,100895.13
2023-04-26T15:13:10.224Z,100894.63
2023-04-26T15:15:36.896Z,100896.47
2023-04-26T15:18:03.980Z,100902.25
2023-04-26T15:20:30.763Z,100898.03
2023-04-26T15:22:57.478Z,100901.75
2023-04-26T15:25:24.175Z,100910.31
2023-04-26T15:27:50.822Z,100896.56
2023-04-26T15:30:17.544Z,100898.47
2023-04-26T15:32:48.270Z,100910.88
2023-04-26T15:35:15.770Z,100916.31
2023-04-26T15:37:44.101Z,100907.25
2023-04-26T15:40:12.120Z,100910.91
2023-04-26T15:42:39.363Z,100914.25
2023-04-26T15:45:07.026Z,100907.97
2023-04-26T15:47:35.632Z,100899.25
2023-04-26T15:50:04.131Z,100904.41
2023-04-26T15:52:36.877Z,100904.75
2023-04-26T15:55:07.256Z,100900.81
2023-04-26T15:57:34.677Z,100910.88
2023-04-26T16:00:02.153Z,100907.75
2023-04-26T16:02:31.216Z,100908.19
2023-04-26T16:04:58.215Z,100906.16
2023-04-26T16:07:24.984Z,100905.31
2023-04-26T16:09:52.565Z,100906.97
2023-04-26T16:12:19.209Z,100909.97
2023-04-26T16:14:45.950Z,100905.72
2023-04-26T16:17:12.674Z,100901.41
2023-04-26T16:19:39.435Z,100905.13
2023-04-26T16:22:06.212Z,100911.72
2023-04-26T16:24:32.986Z,100897.63
2023-04-26T16:26:59.700Z,100906.53
2023-04-26T16:29:26.750Z,100901.78
2023-04-26T16:31:53.867Z,100900.44
2023-04-26T16:34:20.756Z,100908.88
2023-04-26T16:36:47.627Z,100906.56
2023-04-26T16:39:16.149Z,100908.00
2023-04-26T16:41:43.213Z,100905.50
2023-04-26T16:44:10.005Z,100910.97
2023-04-26T16:46:37.253Z,100908.34
2023-04-26T16:49:09.453Z,100907.59
2023-04-26T16:51:39.149Z,100911.38
2023-04-26T16:54:06.049Z,100915.50
2023-04-26T16:56:33.218Z,100916.03
2023-04-26T16:58:59.889Z,100915.38
2023-04-26T17:01:26.905Z,100917.38
2023-04-26T17:03:54.348Z,100912.91
2023-04-26T17:06:21.307Z,100909.06
2023-04-26T17:08:48.125Z,100908.81
2023-04-26T17:11:17.842Z,100910.22
2023-04-26T17:13:44.645Z,100916.22
2023-04-26T17:16:11.596Z,100914.16
2023-04-26T17:18:41.998Z,100913.91
2023-04-26T17:21:09.060Z,100906.06
2023-04-26T17:23:35.941Z,100914.84
2023-04-26T17:26:02.834Z,100911.59
2023-04-26T17:28:29.860Z,100911.97
2023-04-26T17:30:56.529Z,100910.75
2023-04-26T17:33:23.734Z,100910.28
2023-04-26T17:35:50.441Z,100918.13
2023-04-26T17:38:17.418Z,100912.69
2023-04-26T17:40:44.132Z,100913.31
2023-04-26T17:43:11.460Z,100921.72
2023-04-26T17:45:38.326Z,100919.09
2023-04-26T17:48:05.613Z,100915.81
2023-04-26T17:50:32.478Z,100918.38
2023-04-26T17:52:59.207Z,100920.53
2023-04-26T17:55:26.049Z,100920.25
2023-04-26T17:57:52.789Z,100921.34
2023-04-26T18:00:19.764Z,100923.75
2023-04-26T18:02:46.695Z,100912.19
2023-04-26T18:05:13.495Z,100925.72
2023-04-26T18:07:40.315Z,100925.28
2023-04-26T18:10:07.570Z,100923.06
2023-04-26T18:12:35.367Z,100921.72
2023-04-26T18:15:02.270Z,100931.50
2023-04-26T18:17:29.031Z,100924.94
2023-04-26T18:19:56.414Z,100929.41
2023-04-26T18:22:23.099Z,100930.25
2023-04-26T18:24:49.743Z,100927.28
2023-04-26T18:27:16.510Z,100926.41
2023-04-26T18:29:44.010Z,100931.00
2023-04-26T18:32:10.778Z,100929.47
2023-04-26T18:34:37.528Z,100924.84
2023-04-26T18:37:04.833Z,100928.13
2023-04-26T18:39:31.905Z,100930.63
2023-04-26T18:41:58.613Z,100931.44
2023-04-26T18:44:25.285Z,100932.59
2023-04-26T18:46:55.725Z,100929.06
2023-04-26T18:49:23.301Z,100935.28
2023-04-26T18:51:50.218Z,100945.66
2023-04-26T18:54:16.947Z,100944.34
2023-04-26T18:56:44.092Z,100933.59
2023-04-26T18:59:11.433Z,100941.94
2023-04-26T19:01:38.370Z,100936.97
2023-04-26T19:04:05.354Z,100937.06
2023-04-26T19:06:32.845Z,100942.09
2023-04-26T19:09:00.736Z,100938.88
2023-04-26T19:11:27.518Z,100936.22
2023-04-26T19:13:54.277Z,100943.97
2023-04-26T19:16:21.171Z,100941.34
2023-04-26T19:18:49.132Z,100941.00
2023-04-26T19:21:16.384Z,100942.94
2023-04-26T19:23:45.386Z,100942.94
2023-04-26T19:26:13.633Z,100940.00
2023-04-26T19:28:40.891Z,100935.13
2023-04-26T19:31:08.904Z,100938.31
2023-04-26T19:33:36.956Z,100935.66
2023-04-26T19:36:03.971Z,100939.34
2023-04-26T19:38:30.785Z,100940.19
2023-04-26T19:40:57.520Z,100937.50
2023-04-26T19:43:24.358Z,100939.88
2023-04-26T19:45:51.336Z,100949.44
2023-04-26T19:48:18.117Z,100951.72
2023-04-26T19:50:46.793Z,100954.72
2023-04-26T19:53:15.389Z,100950.22
2023-04-26T19:55:42.730Z,100951.22
2023-04-26T19:58:12.996Z,100943.00
2023-04-26T20:00:40.589Z,100950.69
2023-04-26T20:03:07.647Z,100950.88
2023-04-26T20:05:34.728Z,100947.28
2023-04-26T20:08:01.968Z,100953.47
2023-04-26T20:10:33.619Z,100948.56
2023-04-26T20:13:00.916Z,100951.78
2023-04-26T20:15:27.950Z,100951.88
2023-04-26T20:17:55.069Z,100953.25
2023-04-26T20:20:21.921Z,100947.19
2023-04-26T20:22:48.761Z,100948.22
2023-04-26T20:25:15.697Z,100951.16
2023-04-26T20:27:42.425Z,100954.16
2023-04-26T20:30:09.533Z,100950.56
2023-04-26T20:32:36.283Z,100947.66
2023-04-26T20:35:03.230Z,100949.47
2023-04-26T20:37:30.040Z,100951.72
2023-04-26T20:39:57.757Z,100956.94
2023-04-26T20:42:25.350Z,100953.97
2023-04-26T20:44:52.446Z,100951.81
2023-04-26T20:47:19.542Z,100947.47
2023-04-26T20:49:46.249Z,100959.88
2023-04-26T20:52:13.095Z,100959.13
2023-04-26T20:54:39.900Z,100967.00
2023-04-26T20:57:06.680Z,100953.72
2023-04-26T20:59:33.459Z,100960.50
2023-04-26T21:02:00.444Z,100959.56
2023-04-26T21:04:27.455Z,100961.34
2023-04-26T21:06:54.298Z,100954.34
2023-04-26T21:09:21.618Z,100948.16
2023-04-26T21:11:48.644Z,100955.28
2023-04-26T21:14:15.429Z,100957.31
2023-04-26T21:16:42.270Z,100961.50
2023-04-26T21:19:09.751Z,100967.94
2023-04-26T21:21:36.794Z,100962.75
2023-04-26T21:24:04.067Z,100964.31
2023-04-26T21:26:31.057Z,100966.13
2023-04-26T21:28:57.815Z,100959.75
2023-04-26T21:31:24.674Z,100961.25
2023-04-26T21:33:51.469Z,100960.19
2023-04-26T21:36:18.609Z,100974.63
2023-04-26T21:38:45.549Z,100965.59
2023-04-26T21:41:12.315Z,100961.97
2023-04-26T21:43:39.157Z,100959.19
2023-04-26T21:46:06.751Z,100955.56
2023-04-26T21:48:33.914Z,100957.41
2023-04-26T21:51:00.667Z,100955.09
2023-04-26T21:53:27.451Z,100956.78
2023-04-26T21:55:54.257Z,100961.50
2023-04-26T21:58:21.610Z,100961.59
2023-04-26T22:00:48.851Z,100963.91
2023-04-26T22:03:16.349Z,100964.88
2023-04-26T22:05:45.024Z,100957.03
2023-04-26T22:08:11.768Z,100963.91
2023-04-26T22:10:38.594Z,100962.44
2023-04-26T22:13:05.463Z,100960.50
2023-04-26T22:15:32.305Z,100961.78
2023-04-26T22:17:59.117Z,100965.00
2023-04-26T22:20:26.537Z,100966.25
2023-04-26T22:22:53.954Z,100965.00
2023-04-26T22:25:21.043Z,100970.41
2023-04-26T22:27:48.320Z,100960.84
2023-04-26T22:30:23.733Z,100976.91
2023-04-26T22:32:54.726Z,100962.78
2023-04-26T22:35:24.500Z,100965.44
2023-04-26T22:37:51.587Z,100958.19
2023-04-26T22:40:18.408Z,100964.34
2023-04-26T22:42:45.507Z,100966.66
2023-04-26T22:45:13.021Z,100962.00
2023-04-26T22:47:40.907Z,100963.19
2023-04-26T22:50:08.336Z,100964.25
2023-04-26T22:52:35.812Z,100965.84
2023-04-26T22:55:04.006Z,100966.91
2023-04-26T22:57:31.268Z,100969.75
2023-04-26T22:59:58.460Z,100961.19
2023-04-26T23:02:25.376Z,100964.44
2023-04-26T23:04:52.160Z,100964.78
2023-04-26T23:07:19.027Z,100961.38
2023-04-26T23:09:46.075Z,100969.34
2023-04-26T23:12:17.294Z,100965.97
2023-04-26T23:14:44.049Z,100966.09
2023-04-26T23:17:12.201Z,100968.09
2023-04-26T23:19:39.028Z,100974.16
2023-04-26T23:22:05.738Z,100978.41
2023-04-26T23:24:32.464Z,100969.59
2023-04-26T23:26:59.099Z,100969.50
2023-04-26T23:29:26.070Z,100978.41
2023-04-26T23:31:52.811Z,100981.16
2023-04-26T23:34:19.540Z,100974.41
2023-04-26T23:36:46.213Z,100979.72
2023-04-26T23:39:13.094Z,100979.91
2023-04-26T23:41:39.936Z,100977.34
2023-04-26T23:44:07.290Z,100971.84
2023-04-26T23:46:34.022Z,100972.44
2023-04-26T23:49:00.896Z,100962.91
2023-04-26T23:51:27.703Z,100977.16
2023-04-26T23:53:54.426Z,100975.34
2023-04-26T23:56:21.421Z,100966.41
2023-04-26T23:58:48.164Z,100969.09
